sensor_id;sensor_type;location;lat;lon;timestamp;pressure;altitude;pressure_sealevel;temperature;humidity
85918;BME280;76456;49.310;8.632;2024-03-23T00:54:36;99728.66;;;10.98;71.83
85918;BME280;76456;49.310;8.632;2024-03-23T00:57:01;99716.66;;;10.87;72.63
85918;BME280;76456;49.310;8.632;2024-03-23T00:59:26;99709.84;;;10.86;72.78
85918;BME280;76456;49.310;8.632;2024-03-23T01:01:54;99711.44;;;10.78;72.83
85918;BME280;76456;49.310;8.632;2024-03-23T01:04:19;99719.34;;;10.86;71.99
85918;BME280;76456;49.310;8.632;2024-03-23T01:06:44;99702.59;;;11.01;71.93
85918;BME280;76456;49.310;8.632;2024-03-23T01:09:10;99715.88;;;10.96;72.08
85918;BME280;76456;49.310;8.632;2024-03-23T01:11:36;99709.41;;;10.81;72.56
85918;BME280;76456;49.310;8.632;2024-03-23T01:14:02;99696.22;;;10.84;72.53
85918;BME280;76456;49.310;8.632;2024-03-23T01:16:28;99694.69;;;11.02;72.01
85918;BME280;76456;49.310;8.632;2024-03-23T01:18:53;99690.41;;;11.13;71.35
85918;BME280;76456;49.310;8.632;2024-03-23T01:21:18;99707.19;;;11.28;70.93
85918;BME280;76456;49.310;8.632;2024-03-23T01:23:44;99674.63;;;11.16;71.24
85918;BME280;76456;49.310;8.632;2024-03-23T01:26:09;99700.78;;;11.22;71.30
85918;BME280;76456;49.310;8.632;2024-03-23T01:28:35;99665.34;;;11.03;71.51
85918;BME280;76456;49.310;8.632;2024-03-23T01:31:00;99682.19;;;11.07;72.05
85918;BME280;76456;49.310;8.632;2024-03-23T01:33:25;99682.34;;;11.06;71.98
85918;BME280;76456;49.310;8.632;2024-03-23T01:35:51;99673.00;;;11.15;71.34
85918;BME280;76456;49.310;8.632;2024-03-23T01:38:16;99656.00;;;11.12;71.64
85918;BME280;76456;49.310;8.632;2024-03-23T01:40:41;99645.69;;;11.22;71.27
85918;BME280;76456;49.310;8.632;2024-03-23T01:43:07;99673.09;;;11.43;70.51
85918;BME280;76456;49.310;8.632;2024-03-23T01:45:33;99660.31;;;11.52;69.79
85918;BME280;76456;49.310;8.632;2024-03-23T01:47:59;99664.84;;;11.59;69.79
85918;BME280;76456;49.310;8.632;2024-03-23T01:50:25;99628.19;;;11.44;69.84
85918;BME280;76456;49.310;8.632;2024-03-23T01:52:51;99659.81;;;11.67;69.42
85918;BME280;76456;49.310;8.632;2024-03-23T01:55:17;99669.19;;;11.68;69.37
85918;BME280;76456;49.310;8.632;2024-03-23T01:57:42;99655.72;;;11.65;69.73
85918;BME280;76456;49.310;8.632;2024-03-23T02:00:08;99641.16;;;11.54;69.55
85918;BME280;76456;49.310;8.632;2024-03-23T02:02:35;99649.03;;;11.53;70.12
85918;BME280;76456;49.310;8.632;2024-03-23T02:05:00;99629.00;;;11.45;70.46
85918;BME280;76456;49.310;8.632;2024-03-23T02:07:26;99641.16;;;11.54;69.96
85918;BME280;76456;49.310;8.632;2024-03-23T02:09:52;99630.53;;;11.57;69.61
85918;BME280;76456;49.310;8.632;2024-03-23T02:12:18;99623.59;;;11.58;69.64
85918;BME280;76456;49.310;8.632;2024-03-23T02:14:43;99619.53;;;11.65;68.84
85918;BME280;76456;49.310;8.632;2024-03-23T02:17:09;99625.94;;;11.70;68.96
85918;BME280;76456;49.310;8.632;2024-03-23T02:19:34;99619.81;;;11.71;69.00
85918;BME280;76456;49.310;8.632;2024-03-23T02:21:59;99615.72;;;11.69;69.46
85918;BME280;76456;49.310;8.632;2024-03-23T02:24:25;99615.19;;;11.65;69.88
85918;BME280;76456;49.310;8.632;2024-03-23T02:26:50;99615.72;;;11.59;70.28
85918;BME280;76456;49.310;8.632;2024-03-23T02:29:15;99606.16;;;11.50;70.55
85918;BME280;76456;49.310;8.632;2024-03-23T02:31:41;99611.31;;;11.50;70.78
85918;BME280;76456;49.310;8.632;2024-03-23T02:34:06;99606.44;;;11.47;70.99
85918;BME280;76456;49.310;8.632;2024-03-23T02:36:32;99613.00;;;11.70;70.43
85918;BME280;76456;49.310;8.632;2024-03-23T02:38:57;99602.13;;;11.76;69.69
85918;BME280;76456;49.310;8.632;2024-03-23T02:41:22;99614.41;;;11.94;69.07
85918;BME280;76456;49.310;8.632;2024-03-23T02:43:51;99620.09;;;11.97;68.87
85918;BME280;76456;49.310;8.632;2024-03-23T02:46:17;99606.75;;;11.92;69.28
85918;BME280;76456;49.310;8.632;2024-03-23T02:48:42;99620.50;;;12.02;68.92
85918;BME280;76456;49.310;8.632;2024-03-23T02:51:08;99610.84;;;11.95;69.03
85918;BME280;76456;49.310;8.632;2024-03-23T02:53:33;99629.91;;;12.03;68.85
85918;BME280;76456;49.310;8.632;2024-03-23T02:55:59;99618.06;;;12.01;69.26
85918;BME280;76456;49.310;8.632;2024-03-23T02:58:24;99612.75;;;11.93;69.41
85918;BME280;76456;49.310;8.632;2024-03-23T03:00:49;99631.69;;;11.93;69.98
85918;BME280;76456;49.310;8.632;2024-03-23T03:03:15;99607.44;;;11.75;69.47
85918;BME280;76456;49.310;8.632;2024-03-23T03:05:40;99628.00;;;11.86;70.31
85918;BME280;76456;49.310;8.632;2024-03-23T03:08:06;99617.91;;;11.73;70.18
85918;BME280;76456;49.310;8.632;2024-03-23T03:10:31;99620.47;;;11.64;71.21
85918;BME280;76456;49.310;8.632;2024-03-23T03:13:00;99626.34;;;11.66;71.22
85918;BME280;76456;49.310;8.632;2024-03-23T03:15:25;99611.06;;;11.53;71.38
85918;BME280;76456;49.310;8.632;2024-03-23T03:17:51;99620.06;;;11.59;72.07
85918;BME280;76456;49.310;8.632;2024-03-23T03:20:16;99617.84;;;11.44;72.08
85918;BME280;76456;49.310;8.632;2024-03-23T03:22:43;99612.09;;;11.31;72.54
85918;BME280;76456;49.310;8.632;2024-03-23T03:25:08;99626.25;;;11.27;72.90
85918;BME280;76456;49.310;8.632;2024-03-23T03:27:33;99614.38;;;11.15;73.14
85918;BME280;76456;49.310;8.632;2024-03-23T03:29:59;99621.25;;;11.35;72.67
85918;BME280;76456;49.310;8.632;2024-03-23T03:32:28;99614.47;;;11.54;72.45
85918;BME280;76456;49.310;8.632;2024-03-23T03:34:54;99616.53;;;11.69;71.50
85918;BME280;76456;49.310;8.632;2024-03-23T03:37:19;99620.38;;;11.75;71.08
85918;BME280;76456;49.310;8.632;2024-03-23T03:39:44;99618.88;;;11.82;71.11
85918;BME280;76456;49.310;8.632;2024-03-23T03:42:10;99602.78;;;11.69;71.06
85918;BME280;76456;49.310;8.632;2024-03-23T03:44:35;99615.44;;;11.62;71.80
85918;BME280;76456;49.310;8.632;2024-03-23T03:47:02;99596.09;;;11.47;72.58
85918;BME280;76456;49.310;8.632;2024-03-23T03:49:27;99596.22;;;11.36;73.07
85918;BME280;76456;49.310;8.632;2024-03-23T03:51:52;99591.28;;;11.23;73.39
85918;BME280;76456;49.310;8.632;2024-03-23T03:54:18;99595.00;;;11.30;73.00
85918;BME280;76456;49.310;8.632;2024-03-23T03:56:43;99570.34;;;11.26;72.61
85918;BME280;76456;49.310;8.632;2024-03-23T03:59:08;99584.53;;;11.41;72.44
85918;BME280;76456;49.310;8.632;2024-03-23T04:01:34;99579.22;;;11.53;71.38
85918;BME280;76456;49.310;8.632;2024-03-23T04:04:00;99586.31;;;11.70;70.70
85918;BME280;76456;49.310;8.632;2024-03-23T04:06:25;99577.34;;;11.64;70.40
85918;BME280;76456;49.310;8.632;2024-03-23T04:08:51;99589.69;;;11.61;70.31
85918;BME280;76456;49.310;8.632;2024-03-23T04:11:16;99583.75;;;11.79;68.31
85918;BME280;76456;49.310;8.632;2024-03-23T04:13:42;99571.09;;;11.86;66.97
85918;BME280;76456;49.310;8.632;2024-03-23T04:16:08;99550.13;;;11.79;66.31
85918;BME280;76456;49.310;8.632;2024-03-23T04:18:34;99570.13;;;11.97;65.69
85918;BME280;76456;49.310;8.632;2024-03-23T04:21:00;99568.19;;;12.08;64.58
85918;BME280;76456;49.310;8.632;2024-03-23T04:23:25;99568.47;;;12.15;64.62
85918;BME280;76456;49.310;8.632;2024-03-23T04:25:51;99571.22;;;12.13;64.46
85918;BME280;76456;49.310;8.632;2024-03-23T04:28:18;99558.13;;;12.05;64.58
85918;BME280;76456;49.310;8.632;2024-03-23T04:30:44;99572.28;;;12.11;64.85
85918;BME280;76456;49.310;8.632;2024-03-23T04:33:09;99557.75;;;11.90;65.60
85918;BME280;76456;49.310;8.632;2024-03-23T04:35:35;99556.94;;;11.80;65.76
85918;BME280;76456;49.310;8.632;2024-03-23T04:38:01;99564.53;;;11.92;65.92
85918;BME280;76456;49.310;8.632;2024-03-23T04:40:27;99576.41;;;11.94;66.02
85918;BME280;76456;49.310;8.632;2024-03-23T04:42:52;99580.63;;;11.85;65.95
85918;BME280;76456;49.310;8.632;2024-03-23T04:45:17;99572.03;;;11.85;65.69
85918;BME280;76456;49.310;8.632;2024-03-23T04:47:43;99586.88;;;11.93;66.09
85918;BME280;76456;49.310;8.632;2024-03-23T04:50:09;99565.50;;;11.81;65.75
85918;BME280;76456;49.310;8.632;2024-03-23T04:52:35;99570.00;;;11.79;66.05
85918;BME280;76456;49.310;8.632;2024-03-23T04:55:01;99583.63;;;11.81;66.13
85918;BME280;76456;49.310;8.632;2024-03-23T04:57:26;99564.81;;;11.60;66.23
85918;BME280;76456;49.310;8.632;2024-03-23T04:59:52;99582.63;;;11.63;66.86
85918;BME280;76456;49.310;8.632;2024-03-23T05:02:17;99581.81;;;11.62;67.04
85918;BME280;76456;49.310;8.632;2024-03-23T05:04:42;99573.22;;;11.62;66.97
85918;BME280;76456;49.310;8.632;2024-03-23T05:07:07;99572.72;;;11.48;67.40
85918;BME280;76456;49.310;8.632;2024-03-23T05:09:33;99589.41;;;11.44;67.52
85918;BME280;76456;49.310;8.632;2024-03-23T05:11:59;99601.63;;;11.33;68.56
85918;BME280;76456;49.310;8.632;2024-03-23T05:14:28;99606.81;;;11.33;67.90
85918;BME280;76456;49.310;8.632;2024-03-23T05:16:54;99593.59;;;11.26;68.38
85918;BME280;76456;49.310;8.632;2024-03-23T05:19:19;99605.41;;;11.19;69.23
85918;BME280;76456;49.310;8.632;2024-03-23T05:21:45;99591.66;;;11.09;68.99
85918;BME280;76456;49.310;8.632;2024-03-23T05:24:11;99611.66;;;11.07;68.88
85918;BME280;76456;49.310;8.632;2024-03-23T05:26:37;99615.47;;;11.13;68.69
85918;BME280;76456;49.310;8.632;2024-03-23T05:29:02;99578.16;;;10.96;67.90
85918;BME280;76456;49.310;8.632;2024-03-23T05:31:31;99587.16;;;11.01;68.89
85918;BME280;76456;49.310;8.632;2024-03-23T05:33:56;99616.09;;;10.95;69.03
85918;BME280;76456;49.310;8.632;2024-03-23T05:36:22;99619.88;;;10.91;68.66
85918;BME280;76456;49.310;8.632;2024-03-23T05:38:48;99625.41;;;10.77;69.31
85918;BME280;76456;49.310;8.632;2024-03-23T05:41:14;99635.97;;;10.74;69.51
85918;BME280;76456;49.310;8.632;2024-03-23T05:43:39;99656.75;;;10.73;69.14
85918;BME280;76456;49.310;8.632;2024-03-23T05:46:05;99632.66;;;10.62;68.87
85918;BME280;76456;49.310;8.632;2024-03-23T05:48:31;99662.00;;;10.82;67.92
85918;BME280;76456;49.310;8.632;2024-03-23T05:50:58;99651.59;;;10.73;67.95
85918;BME280;76456;49.310;8.632;2024-03-23T05:53:24;99690.63;;;10.79;68.07
85918;BME280;76456;49.310;8.632;2024-03-23T05:55:50;99711.06;;;10.61;67.72
85918;BME280;76456;49.310;8.632;2024-03-23T05:58:16;99745.22;;;10.33;67.05
85918;BME280;76456;49.310;8.632;2024-03-23T06:00:43;99748.81;;;9.99;67.19
85918;BME280;76456;49.310;8.632;2024-03-23T06:03:09;99738.59;;;9.54;66.74
85918;BME280;76456;49.310;8.632;2024-03-23T06:05:35;99772.09;;;9.54;67.70
85918;BME280;76456;49.310;8.632;2024-03-23T06:08:00;99763.03;;;9.37;67.91
85918;BME280;76456;49.310;8.632;2024-03-23T06:10:25;99770.19;;;9.23;67.99
85918;BME280;76456;49.310;8.632;2024-03-23T06:12:51;99786.31;;;9.14;68.60
85918;BME280;76456;49.310;8.632;2024-03-23T06:15:20;99781.16;;;9.02;68.78
85918;BME280;76456;49.310;8.632;2024-03-23T06:17:45;99789.13;;;8.99;68.87
85918;BME280;76456;49.310;8.632;2024-03-23T06:20:11;99797.44;;;9.03;69.14
85918;BME280;76456;49.310;8.632;2024-03-23T06:22:36;99803.03;;;8.97;69.45
85918;BME280;76456;49.310;8.632;2024-03-23T06:25:02;99807.84;;;9.01;69.12
85918;BME280;76456;49.310;8.632;2024-03-23T06:27:28;99821.31;;;9.05;68.85
85918;BME280;76456;49.310;8.632;2024-03-23T06:29:53;99814.88;;;8.99;69.56
85918;BME280;76456;49.310;8.632;2024-03-23T06:32:18;99817.81;;;8.95;69.11
85918;BME280;76456;49.310;8.632;2024-03-23T06:34:44;99810.06;;;8.95;69.54
85918;BME280;76456;49.310;8.632;2024-03-23T06:37:10;99831.00;;;8.90;69.48
85918;BME280;76456;49.310;8.632;2024-03-23T06:39:36;99839.19;;;8.95;69.76
85918;BME280;76456;49.310;8.632;2024-03-23T06:42:02;99860.06;;;9.03;69.12
85918;BME280;76456;49.310;8.632;2024-03-23T06:44:28;99857.47;;;8.92;68.67
85918;BME280;76456;49.310;8.632;2024-03-23T06:46:53;99871.28;;;9.02;69.01
85918;BME280;76456;49.310;8.632;2024-03-23T06:49:18;99862.06;;;9.00;69.07
85918;BME280;76456;49.310;8.632;2024-03-23T06:51:45;99871.78;;;9.08;68.69
85918;BME280;76456;49.310;8.632;2024-03-23T06:54:10;99870.63;;;9.12;68.86
85918;BME280;76456;49.310;8.632;2024-03-23T06:56:36;99879.78;;;9.27;68.53
85918;BME280;76456;49.310;8.632;2024-03-23T06:59:01;99890.00;;;9.28;68.13
85918;BME280;76456;49.310;8.632;2024-03-23T07:01:26;99892.19;;;9.22;68.69
85918;BME280;76456;49.310;8.632;2024-03-23T07:03:53;99912.28;;;9.06;68.29
85918;BME280;76456;49.310;8.632;2024-03-23T07:06:19;99918.44;;;8.92;69.46
85918;BME280;76456;49.310;8.632;2024-03-23T07:08:44;99920.06;;;8.93;69.17
85918;BME280;76456;49.310;8.632;2024-03-23T07:11:09;99931.16;;;8.82;69.74
85918;BME280;76456;49.310;8.632;2024-03-23T07:13:35;99910.81;;;8.67;69.05
85918;BME280;76456;49.310;8.632;2024-03-23T07:16:00;99909.94;;;8.79;68.69
85918;BME280;76456;49.310;8.632;2024-03-23T07:18:26;99928.97;;;8.89;68.94
85918;BME280;76456;49.310;8.632;2024-03-23T07:20:58;99930.28;;;8.94;68.61
85918;BME280;76456;49.310;8.632;2024-03-23T07:23:24;99942.38;;;9.05;68.45
85918;BME280;76456;49.310;8.632;2024-03-23T07:26:03;99934.03;;;9.01;67.41
85918;BME280;76456;49.310;8.632;2024-03-23T07:28:33;99954.63;;;9.01;66.20
85918;BME280;76456;49.310;8.632;2024-03-23T07:31:09;99960.84;;;8.99;67.20
85918;BME280;76456;49.310;8.632;2024-03-23T07:33:36;99972.44;;;9.04;66.35
85918;BME280;76456;49.310;8.632;2024-03-23T07:36:02;99944.94;;;8.81;65.37
85918;BME280;76456;49.310;8.632;2024-03-23T07:38:28;99967.50;;;8.78;64.66
85918;BME280;76456;49.310;8.632;2024-03-23T07:41:07;99987.41;;;8.99;64.27
85918;BME280;76456;49.310;8.632;2024-03-23T07:43:33;99994.09;;;9.02;63.72
85918;BME280;76456;49.310;8.632;2024-03-23T07:46:00;99997.09;;;8.96;62.89
85918;BME280;76456;49.310;8.632;2024-03-23T07:48:26;100005.06;;;9.17;61.93
85918;BME280;76456;49.310;8.632;2024-03-23T07:51:16;100012.09;;;9.02;61.21
85918;BME280;76456;49.310;8.632;2024-03-23T07:53:43;100036.59;;;9.08;60.63
85918;BME280;76456;49.310;8.632;2024-03-23T07:56:10;100050.69;;;9.15;61.28
85918;BME280;76456;49.310;8.632;2024-03-23T07:58:36;100051.16;;;8.96;61.53
85918;BME280;76456;49.310;8.632;2024-03-23T08:01:15;100047.03;;;9.06;61.16
85918;BME280;76456;49.310;8.632;2024-03-23T08:03:43;100061.75;;;9.40;60.90
85918;BME280;76456;49.310;8.632;2024-03-23T08:06:19;100054.00;;;9.40;60.71
85918;BME280;76456;49.310;8.632;2024-03-23T08:08:46;100058.75;;;9.10;60.72
85918;BME280;76456;49.310;8.632;2024-03-23T08:11:12;100064.34;;;9.04;61.79
85918;BME280;76456;49.310;8.632;2024-03-23T08:13:42;100090.59;;;9.09;60.44
85918;BME280;76456;49.310;8.632;2024-03-23T08:16:08;100073.41;;;9.33;60.12
85918;BME280;76456;49.310;8.632;2024-03-23T08:18:37;100090.19;;;9.39;59.70
85918;BME280;76456;49.310;8.632;2024-03-23T08:21:06;100088.28;;;9.54;59.02
85918;BME280;76456;49.310;8.632;2024-03-23T08:23:33;100098.47;;;9.55;58.64
85918;BME280;76456;49.310;8.632;2024-03-23T08:26:02;100100.13;;;9.56;58.64
85918;BME280;76456;49.310;8.632;2024-03-23T08:28:27;100083.19;;;9.41;59.21
85918;BME280;76456;49.310;8.632;2024-03-23T08:30:54;100106.03;;;9.69;58.67
85918;BME280;76456;49.310;8.632;2024-03-23T08:33:20;100108.28;;;9.50;58.27
85918;BME280;76456;49.310;8.632;2024-03-23T08:35:53;100101.31;;;9.39;59.75
85918;BME280;76456;49.310;8.632;2024-03-23T08:38:19;100129.44;;;9.19;60.83
85918;BME280;76456;49.310;8.632;2024-03-23T08:40:45;100123.59;;;9.64;59.22
85918;BME280;76456;49.310;8.632;2024-03-23T08:43:10;100131.72;;;9.95;56.83
85918;BME280;76456;49.310;8.632;2024-03-23T08:45:35;100117.41;;;10.02;56.44
85918;BME280;76456;49.310;8.632;2024-03-23T08:48:01;100117.91;;;10.07;56.29
85918;BME280;76456;49.310;8.632;2024-03-23T08:50:26;100126.78;;;10.26;56.23
85918;BME280;76456;49.310;8.632;2024-03-23T08:52:51;100138.81;;;10.15;56.22
85918;BME280;76456;49.310;8.632;2024-03-23T08:55:17;100128.44;;;10.04;55.73
85918;BME280;76456;49.310;8.632;2024-03-23T08:57:42;100132.31;;;9.74;56.60
85918;BME280;76456;49.310;8.632;2024-03-23T09:00:08;100140.72;;;9.65;56.84
85918;BME280;76456;49.310;8.632;2024-03-23T09:02:34;100140.06;;;9.74;56.99
85918;BME280;76456;49.310;8.632;2024-03-23T09:04:59;100141.78;;;10.21;55.32
85918;BME280;76456;49.310;8.632;2024-03-23T09:07:32;100136.47;;;10.47;53.23
85918;BME280;76456;49.310;8.632;2024-03-23T09:09:57;100140.47;;;10.62;52.47
85918;BME280;76456;49.310;8.632;2024-03-23T09:12:23;100150.75;;;10.40;52.63
85918;BME280;76456;49.310;8.632;2024-03-23T09:14:49;100146.06;;;10.45;52.68
85918;BME280;76456;49.310;8.632;2024-03-23T09:17:15;100140.81;;;10.57;52.12
85918;BME280;76456;49.310;8.632;2024-03-23T09:19:40;100137.41;;;10.90;51.75
85918;BME280;76456;49.310;8.632;2024-03-23T09:22:05;100144.22;;;11.14;51.18
85918;BME280;76456;49.310;8.632;2024-03-23T09:24:31;100151.34;;;11.43;51.00
85918;BME280;76456;49.310;8.632;2024-03-23T09:26:57;100150.69;;;11.41;50.04
85918;BME280;76456;49.310;8.632;2024-03-23T09:29:22;100138.72;;;11.29;47.71
85918;BME280;76456;49.310;8.632;2024-03-23T09:31:48;100152.78;;;11.47;48.20
85918;BME280;76456;49.310;8.632;2024-03-23T09:34:13;100131.72;;;11.52;47.35
85918;BME280;76456;49.310;8.632;2024-03-23T09:36:38;100139.88;;;11.14;47.27
85918;BME280;76456;49.310;8.632;2024-03-23T09:39:03;100128.38;;;10.96;47.51
85918;BME280;76456;49.310;8.632;2024-03-23T09:41:30;100141.91;;;10.66;48.81
85918;BME280;76456;49.310;8.632;2024-03-23T09:43:56;100140.28;;;10.19;48.90
85918;BME280;76456;49.310;8.632;2024-03-23T09:46:21;100144.66;;;10.06;47.12
85918;BME280;76456;49.310;8.632;2024-03-23T09:48:47;100155.22;;;9.90;47.64
85918;BME280;76456;49.310;8.632;2024-03-23T09:51:12;100145.66;;;9.68;48.77
85918;BME280;76456;49.310;8.632;2024-03-23T09:53:37;100141.25;;;9.58;48.97
85918;BME280;76456;49.310;8.632;2024-03-23T09:56:04;100157.00;;;9.66;48.73
85918;BME280;76456;49.310;8.632;2024-03-23T09:58:29;100155.22;;;9.66;48.82
85918;BME280;76456;49.310;8.632;2024-03-23T10:00:54;100164.53;;;9.69;50.20
85918;BME280;76456;49.310;8.632;2024-03-23T10:03:20;100153.19;;;9.71;50.38
85918;BME280;76456;49.310;8.632;2024-03-23T10:05:45;100155.41;;;9.76;48.63
85918;BME280;76456;49.310;8.632;2024-03-23T10:10:39;100146.28;;;9.72;49.45
85918;BME280;76456;49.310;8.632;2024-03-23T10:13:04;100152.00;;;9.75;48.48
85918;BME280;76456;49.310;8.632;2024-03-23T10:15:34;100152.66;;;9.90;46.98
85918;BME280;76456;49.310;8.632;2024-03-23T10:18:17;100158.84;;;10.11;47.71
85918;BME280;76456;49.310;8.632;2024-03-23T10:20:43;100160.38;;;10.14;45.49
85918;BME280;76456;49.310;8.632;2024-03-23T10:23:18;100156.25;;;10.24;45.95
85918;BME280;76456;49.310;8.632;2024-03-23T10:25:44;100145.84;;;10.13;47.04
85918;BME280;76456;49.310;8.632;2024-03-23T10:28:11;100138.44;;;10.08;46.91
85918;BME280;76456;49.310;8.632;2024-03-23T10:30:36;100147.31;;;10.28;47.41
85918;BME280;76456;49.310;8.632;2024-03-23T10:35:33;100142.88;;;10.30;47.88
85918;BME280;76456;49.310;8.632;2024-03-23T10:37:59;100143.50;;;10.45;47.63
85918;BME280;76456;49.310;8.632;2024-03-23T10:40:26;100151.00;;;10.37;47.63
85918;BME280;76456;49.310;8.632;2024-03-23T10:42:52;100150.19;;;10.47;47.69
85918;BME280;76456;49.310;8.632;2024-03-23T10:45:20;100117.53;;;10.24;47.64
85918;BME280;76456;49.310;8.632;2024-03-23T10:47:46;100138.22;;;10.57;47.80
85918;BME280;76456;49.310;8.632;2024-03-23T10:50:12;100119.69;;;10.75;47.13
85918;BME280;76456;49.310;8.632;2024-03-23T10:52:38;100133.72;;;11.60;46.77
85918;BME280;76456;49.310;8.632;2024-03-23T10:55:05;100113.63;;;11.95;42.89
85918;BME280;76456;49.310;8.632;2024-03-23T10:57:36;100121.06;;;12.51;41.91
85918;BME280;76456;49.310;8.632;2024-03-23T11:00:04;100120.44;;;15.45;34.89
85918;BME280;76456;49.310;8.632;2024-03-23T11:02:30;100094.00;;;16.29;32.25
85918;BME280;76456;49.310;8.632;2024-03-23T11:04:56;100095.16;;;16.86;31.00
85918;BME280;76456;49.310;8.632;2024-03-23T11:09:50;100112.66;;;14.34;33.62
85918;BME280;76456;49.310;8.632;2024-03-23T11:17:21;100116.50;;;17.24;27.44
85918;BME280;76456;49.310;8.632;2024-03-23T11:25:25;100113.50;;;13.29;36.42
85918;BME280;76456;49.310;8.632;2024-03-23T11:27:55;100111.03;;;14.53;35.32
85918;BME280;76456;49.310;8.632;2024-03-23T11:32:50;100112.09;;;12.34;41.65
85918;BME280;76456;49.310;8.632;2024-03-23T11:35:32;100096.16;;;12.59;41.99
85918;BME280;76456;49.310;8.632;2024-03-23T11:38:05;100101.44;;;12.27;41.32
85918;BME280;76456;49.310;8.632;2024-03-23T11:40:32;100089.34;;;14.06;35.37
85918;BME280;76456;49.310;8.632;2024-03-23T11:43:00;100095.28;;;15.64;33.94
85918;BME280;76456;49.310;8.632;2024-03-23T11:45:26;100094.31;;;16.77;32.72
85918;BME280;76456;49.310;8.632;2024-03-23T11:50:33;100073.16;;;16.55;32.38
85918;BME280;76456;49.310;8.632;2024-03-23T11:55:56;100056.75;;;16.11;32.01
85918;BME280;76456;49.310;8.632;2024-03-23T11:58:23;100050.63;;;17.30;29.35
85918;BME280;76456;49.310;8.632;2024-03-23T12:03:16;100047.28;;;16.61;28.18
85918;BME280;76456;49.310;8.632;2024-03-23T12:05:41;100050.41;;;15.87;29.49
85918;BME280;76456;49.310;8.632;2024-03-23T12:10:53;100073.66;;;14.91;30.79
85918;BME280;76456;49.310;8.632;2024-03-23T12:13:29;100073.22;;;14.02;32.62
85918;BME280;76456;49.310;8.632;2024-03-23T12:15:54;100079.13;;;13.56;34.41
85918;BME280;76456;49.310;8.632;2024-03-23T12:18:23;100094.44;;;13.59;34.16
85918;BME280;76456;49.310;8.632;2024-03-23T12:20:49;100114.69;;;12.34;41.50
85918;BME280;76456;49.310;8.632;2024-03-23T12:23:15;100125.50;;;10.32;48.17
85918;BME280;76456;49.310;8.632;2024-03-23T12:25:40;100089.78;;;10.15;50.07
85918;BME280;76456;49.310;8.632;2024-03-23T12:28:07;100116.72;;;10.00;51.89
85918;BME280;76456;49.310;8.632;2024-03-23T12:30:33;100103.72;;;10.01;52.27
85918;BME280;76456;49.310;8.632;2024-03-23T12:32:59;100122.75;;;10.68;50.56
85918;BME280;76456;49.310;8.632;2024-03-23T12:35:24;100152.78;;;10.47;52.33
85918;BME280;76456;49.310;8.632;2024-03-23T12:37:50;100146.25;;;9.12;57.70
85918;BME280;76456;49.310;8.632;2024-03-23T12:40:15;100136.19;;;8.83;63.51
85918;BME280;76456;49.310;8.632;2024-03-23T12:42:40;100138.94;;;8.80;62.77
85918;BME280;76456;49.310;8.632;2024-03-23T12:45:06;100127.41;;;8.60;62.23
85918;BME280;76456;49.310;8.632;2024-03-23T12:47:32;100106.22;;;8.70;64.07
85918;BME280;76456;49.310;8.632;2024-03-23T12:49:57;100113.22;;;8.80;62.67
85918;BME280;76456;49.310;8.632;2024-03-23T12:52:22;100125.75;;;8.85;63.34
85918;BME280;76456;49.310;8.632;2024-03-23T12:54:53;100134.03;;;8.77;62.36
85918;BME280;76456;49.310;8.632;2024-03-23T12:57:19;100130.28;;;9.07;62.81
85918;BME280;76456;49.310;8.632;2024-03-23T12:59:44;100113.44;;;9.50;62.98
85918;BME280;76456;49.310;8.632;2024-03-23T13:02:15;100113.69;;;9.71;60.13
85918;BME280;76456;49.310;8.632;2024-03-23T13:04:40;100133.19;;;9.62;57.78
85918;BME280;76456;49.310;8.632;2024-03-23T13:07:05;100120.38;;;9.37;54.99
85918;BME280;76456;49.310;8.632;2024-03-23T13:09:32;100154.72;;;9.37;52.21
85918;BME280;76456;49.310;8.632;2024-03-23T13:11:57;100176.53;;;8.95;56.88
85918;BME280;76456;49.310;8.632;2024-03-23T13:14:22;100199.50;;;8.73;59.36
85918;BME280;76456;49.310;8.632;2024-03-23T13:16:48;100192.69;;;8.72;61.64
85918;BME280;76456;49.310;8.632;2024-03-23T13:19:13;100185.38;;;9.29;60.69
85918;BME280;76456;49.310;8.632;2024-03-23T13:21:39;100177.84;;;9.86;59.53
85918;BME280;76456;49.310;8.632;2024-03-23T13:24:04;100176.19;;;10.33;57.06
85918;BME280;76456;49.310;8.632;2024-03-23T13:26:30;100176.44;;;10.30;58.12
85918;BME280;76456;49.310;8.632;2024-03-23T13:28:55;100186.06;;;11.19;56.49
85918;BME280;76456;49.310;8.632;2024-03-23T13:31:20;100171.91;;;10.67;55.50
85918;BME280;76456;49.310;8.632;2024-03-23T13:33:46;100173.81;;;10.19;57.33
85918;BME280;76456;49.310;8.632;2024-03-23T13:36:11;100177.69;;;11.26;55.17
85918;BME280;76456;49.310;8.632;2024-03-23T13:38:37;100162.50;;;12.30;50.82
85918;BME280;76456;49.310;8.632;2024-03-23T13:41:02;100154.59;;;12.52;51.89
85918;BME280;76456;49.310;8.632;2024-03-23T13:43:30;100153.19;;;11.64;52.94
85918;BME280;76456;49.310;8.632;2024-03-23T13:45:56;100155.50;;;11.35;52.54
85918;BME280;76456;49.310;8.632;2024-03-23T13:48:26;100149.03;;;11.95;50.88
85918;BME280;76456;49.310;8.632;2024-03-23T13:51:04;100153.69;;;13.14;47.91
85918;BME280;76456;49.310;8.632;2024-03-23T13:53:31;100143.84;;;14.54;44.15
85918;BME280;76456;49.310;8.632;2024-03-23T13:55:59;100138.41;;;14.18;42.80
85918;BME280;76456;49.310;8.632;2024-03-23T13:58:25;100119.13;;;14.40;43.51
85918;BME280;76456;49.310;8.632;2024-03-23T14:00:51;100111.59;;;14.27;40.13
85918;BME280;76456;49.310;8.632;2024-03-23T14:03:16;100113.41;;;14.08;39.52
85918;BME280;76456;49.310;8.632;2024-03-23T14:05:42;100106.84;;;13.65;40.12
85918;BME280;76456;49.310;8.632;2024-03-23T14:08:08;100103.13;;;14.16;39.26
85918;BME280;76456;49.310;8.632;2024-03-23T14:10:34;100105.88;;;13.57;40.38
85918;BME280;76456;49.310;8.632;2024-03-23T14:13:01;100119.00;;;13.05;40.18
85918;BME280;76456;49.310;8.632;2024-03-23T14:15:27;100122.78;;;11.99;41.80
85918;BME280;76456;49.310;8.632;2024-03-23T14:17:52;100119.75;;;13.27;38.80